METAR Data
IDs: Format: Raw Decoded Include TAF

Data at: 0640 UTC 03 Aug 2021

KRAL 030553Z AUTO 00000KT 10SM CLR 26/03 A2999 RMK AO2 SLP136 T02610033 10372 20256 50009
KRAL 030453Z AUTO VRB03KT 10SM CLR 28/03 A2999 RMK AO2 SLP138 T02780028
KRAL 030353Z AUTO 27003KT 10SM CLR 29/02 A2998 RMK AO2 SLP135 T02890022
KRAL 030253Z 27012KT 10SM CLR 31/02 A2996 RMK AO2 SLP128 T03110022 53009
KRAL 030153Z 26014KT 10SM CLR 33/M02 A2994 RMK AO2 SLP122 T03331022
KRAL 030053Z 27011KT 10SM CLR 36/04 A2993 RMK AO2 SLP119 T03560044
KRAL 022353Z 26016G22KT 10SM CLR 37/06 A2993 RMK AO2 SLP118 T03720056 10400 20322 56012
KRAL 022253Z 27018G22KT 10SM CLR 38/04 A2993 RMK AO2 SLP117 T03830044
KRAL 022153Z 29008G19KT 10SM CLR 39/03 A2995 RMK AO2 SLP123 T03940033
KRAL 022053Z 27012G17KT 10SM CLR 38/07 A2997 RMK AO2 SLP130 T03830067 56025
KRAL 021953Z 30007KT 10SM CLR 37/04 A2999 RMK AO2 SLP137 T03720039
KRAL 021853Z VRB05KT 10SM CLR 34/03 A3002 RMK AO2 SLP146 T03440028
KRAL 021753Z 00000KT 10SM CLR 33/04 A3004 RMK AO2 SLP156 T03280039 10328 20194 58008
KRAL 021653Z VRB03KT 10SM CLR 29/08 A3006 RMK AO2 SLP161 T02890078
KRAL 021553Z 22003KT 10SM CLR 26/09 A3007 RMK AO2 SLP166 T02560089
KRAL 021453Z 00000KT 10SM CLR 23/07 A3007 RMK AO2 SLP165 T02280072 51014
KRAL 021353Z 00000KT 10SM CLR 20/07 A3006 RMK AO2 SLP163 T02000072
KRAL 021253Z AUTO 00000KT 10SM CLR 20/08 A3004 RMK AO2 SLP156 T02000078
KRAL 021153Z AUTO 00000KT 10SM CLR 20/11 A3003 RMK AO2 SLP151 T02000106 10250 20194 55002
KRAL 021053Z AUTO 00000KT 10SM CLR 21/08 A3002 RMK AO2 SLP149 T02110083
KRAL 020953Z AUTO 00000KT 10SM CLR 21/09 A3002 RMK AO2 SLP149 T02060089
KRAL 020853Z AUTO 00000KT 10SM CLR 21/09 A3004 RMK AO2 SLP153 T02110089 58003
KRAL 020753Z AUTO 00000KT 10SM CLR 23/08 A3004 RMK AO2 SLP154 T02280083 403670189
KRAL 020653Z AUTO 00000KT 10SM CLR 24/08 A3004 RMK AO2 SLP156 T02440083
KRAL 020553Z AUTO 28003KT 10SM CLR 25/07 A3004 RMK AO2 SLP156 T02500072 10339 20250 51011
KRAL 020453Z AUTO 29003KT 10SM CLR 26/07 A3004 RMK AO2 SLP155 T02610072
KRAL 020353Z AUTO 28005KT 10SM CLR 27/06 A3002 RMK AO2 SLP149 T02720061
KRAL 020253Z AUTO 24007KT 10SM CLR 29/04 A3001 RMK AO2 SLP145 T02890039 53009
KRAL 020153Z AUTO 28009KT 10SM CLR 31/06 A2999 RMK AO2 SLP140 T03110056
KRAL 020053Z AUTO 26013G20KT 10SM CLR 32/09 A2998 RMK AO2 SLP136 T03220094
KRAL 012353Z AUTO 26015KT 10SM CLR 34/10 A2998 RMK AO2 SLP135 T03440100 10367 20300 56006
KRAL 012253Z AUTO 26014G19KT 10SM CLR 35/09 A2999 RMK AO2 SLP138 T03500089
KRAL 012153Z 24013G20KT 10SM CLR 37/09 A2999 RMK AO2 SLP139 T03670089
KRAL 012053Z 30007KT 260V330 10SM CLR 36/08 A3000 RMK AO2 SLP142 T03610078 56020
KRAL 011953Z VRB05KT 10SM CLR 34/06 A3002 RMK AO2 SLP148 T03440061
KRAL 011853Z VRB06KT 10SM CLR 33/06 A3004 RMK AO2 SLP155 T03280056